sensor_id;sensor_type;location;lat;lon;timestamp;P1;durP1;ratioP1;P2;durP2;ratioP2
47021;SDS011;32779;52.264;6.154;2023-07-16T00:04:21;30.27;;;25.87;;
47021;SDS011;32779;52.264;6.154;2023-07-16T00:06:47;31.60;;;24.33;;
47021;SDS011;32779;52.264;6.154;2023-07-16T00:11:38;22.52;;;17.05;;
47021;SDS011;32779;52.264;6.154;2023-07-16T00:16:30;36.33;;;26.45;;
47021;SDS011;32779;52.264;6.154;2023-07-16T00:18:55;30.35;;;25.38;;
47021;SDS011;32779;52.264;6.154;2023-07-16T00:21:21;36.60;;;23.80;;
47021;SDS011;32779;52.264;6.154;2023-07-16T00:23:48;36.42;;;26.50;;
47021;SDS011;32779;52.264;6.154;2023-07-16T00:28:39;30.20;;;21.42;;
47021;SDS011;32779;52.264;6.154;2023-07-16T00:33:31;25.73;;;20.88;;
47021;SDS011;32779;52.264;6.154;2023-07-16T00:35:56;31.27;;;25.88;;
47021;SDS011;32779;52.264;6.154;2023-07-16T00:38:22;36.40;;;26.35;;
47021;SDS011;32779;52.264;6.154;2023-07-16T00:43:13;41.28;;;33.03;;
47021;SDS011;32779;52.264;6.154;2023-07-16T00:48:05;44.75;;;34.45;;
47021;SDS011;32779;52.264;6.154;2023-07-16T00:50:32;47.35;;;37.78;;
47021;SDS011;32779;52.264;6.154;2023-07-16T00:53:00;44.38;;;36.72;;
47021;SDS011;32779;52.264;6.154;2023-07-16T00:55:26;41.95;;;32.47;;
47021;SDS011;32779;52.264;6.154;2023-07-16T00:57:53;30.60;;;27.33;;
47021;SDS011;32779;52.264;6.154;2023-07-16T01:00:21;35.67;;;30.52;;
47021;SDS011;32779;52.264;6.154;2023-07-16T01:05:12;40.63;;;35.00;;
47021;SDS011;32779;52.264;6.154;2023-07-16T01:10:07;43.15;;;38.75;;
47021;SDS011;32779;52.264;6.154;2023-07-16T01:12:33;34.85;;;31.15;;
47021;SDS011;32779;52.264;6.154;2023-07-16T01:14:59;42.03;;;34.72;;
47021;SDS011;32779;52.264;6.154;2023-07-16T01:17:25;37.15;;;29.88;;
47021;SDS011;32779;52.264;6.154;2023-07-16T01:27:44;46.67;;;38.38;;
47021;SDS011;32779;52.264;6.154;2023-07-16T01:30:24;43.28;;;35.53;;
47021;SDS011;32779;52.264;6.154;2023-07-16T01:32:53;40.05;;;31.20;;
47021;SDS011;32779;52.264;6.154;2023-07-16T01:35:19;47.15;;;37.92;;
47021;SDS011;32779;52.264;6.154;2023-07-16T01:37:45;37.20;;;33.47;;
47021;SDS011;32779;52.264;6.154;2023-07-16T01:42:37;44.40;;;37.17;;
47021;SDS011;32779;52.264;6.154;2023-07-16T01:45:03;44.95;;;33.53;;
47021;SDS011;32779;52.264;6.154;2023-07-16T01:50:13;44.95;;;36.42;;
47021;SDS011;32779;52.264;6.154;2023-07-16T01:52:39;46.00;;;35.10;;
47021;SDS011;32779;52.264;6.154;2023-07-16T01:57:32;49.17;;;41.13;;
47021;SDS011;32779;52.264;6.154;2023-07-16T01:59:57;45.28;;;37.85;;
47021;SDS011;32779;52.264;6.154;2023-07-16T02:04:48;47.97;;;39.03;;
47021;SDS011;32779;52.264;6.154;2023-07-16T02:09:40;59.60;;;49.60;;
47021;SDS011;32779;52.264;6.154;2023-07-16T02:14:31;47.90;;;42.83;;
47021;SDS011;32779;52.264;6.154;2023-07-16T02:19:22;49.22;;;42.13;;
47021;SDS011;32779;52.264;6.154;2023-07-16T02:24:14;59.83;;;52.10;;
47021;SDS011;32779;52.264;6.154;2023-07-16T02:29:05;59.90;;;53.75;;
47021;SDS011;32779;52.264;6.154;2023-07-16T02:31:33;42.75;;;35.97;;
47021;SDS011;32779;52.264;6.154;2023-07-16T02:36:25;53.13;;;47.60;;
47021;SDS011;32779;52.264;6.154;2023-07-16T02:41:16;56.03;;;50.20;;
47021;SDS011;32779;52.264;6.154;2023-07-16T02:46:07;60.00;;;51.88;;
47021;SDS011;32779;52.264;6.154;2023-07-16T02:50:58;64.95;;;58.10;;
47021;SDS011;32779;52.264;6.154;2023-07-16T02:55:49;66.80;;;57.85;;
47021;SDS011;32779;52.264;6.154;2023-07-16T03:00:40;69.32;;;61.75;;
47021;SDS011;32779;52.264;6.154;2023-07-16T03:05:31;67.15;;;59.00;;
47021;SDS011;32779;52.264;6.154;2023-07-16T03:10:23;65.65;;;54.50;;
47021;SDS011;32779;52.264;6.154;2023-07-16T03:12:51;54.28;;;48.38;;
47021;SDS011;32779;52.264;6.154;2023-07-16T03:15:17;55.42;;;48.80;;
47021;SDS011;32779;52.264;6.154;2023-07-16T03:20:09;61.80;;;55.08;;
47021;SDS011;32779;52.264;6.154;2023-07-16T03:25:00;61.30;;;55.15;;
47021;SDS011;32779;52.264;6.154;2023-07-16T03:27:27;66.15;;;54.92;;
47021;SDS011;32779;52.264;6.154;2023-07-16T03:32:18;67.45;;;60.10;;
47021;SDS011;32779;52.264;6.154;2023-07-16T03:37:09;71.60;;;62.92;;
47021;SDS011;32779;52.264;6.154;2023-07-16T03:42:00;82.60;;;74.88;;
47021;SDS011;32779;52.264;6.154;2023-07-16T03:46:51;76.28;;;68.35;;
47021;SDS011;32779;52.264;6.154;2023-07-16T03:51:43;71.35;;;64.63;;
47021;SDS011;32779;52.264;6.154;2023-07-16T03:56:34;69.60;;;62.33;;
47021;SDS011;32779;52.264;6.154;2023-07-16T04:01:25;65.75;;;59.25;;
47021;SDS011;32779;52.264;6.154;2023-07-16T04:06:16;62.50;;;52.25;;
47021;SDS011;32779;52.264;6.154;2023-07-16T04:11:07;65.80;;;58.75;;
47021;SDS011;32779;52.264;6.154;2023-07-16T04:15:58;56.33;;;48.42;;
47021;SDS011;32779;52.264;6.154;2023-07-16T04:20:50;59.67;;;51.35;;
47021;SDS011;32779;52.264;6.154;2023-07-16T04:25:42;62.15;;;53.85;;
47021;SDS011;32779;52.264;6.154;2023-07-16T04:30:33;70.90;;;58.22;;
47021;SDS011;32779;52.264;6.154;2023-07-16T04:35:24;69.15;;;61.92;;
47021;SDS011;32779;52.264;6.154;2023-07-16T04:40:16;73.63;;;65.60;;
47021;SDS011;32779;52.264;6.154;2023-07-16T04:45:07;67.90;;;59.47;;
47021;SDS011;32779;52.264;6.154;2023-07-16T04:47:33;47.22;;;41.60;;
47021;SDS011;32779;52.264;6.154;2023-07-16T04:52:24;64.97;;;58.00;;
47021;SDS011;32779;52.264;6.154;2023-07-16T04:57:16;61.15;;;55.15;;
47021;SDS011;32779;52.264;6.154;2023-07-16T05:02:07;66.00;;;59.53;;
47021;SDS011;32779;52.264;6.154;2023-07-16T05:07:01;49.85;;;44.85;;
47021;SDS011;32779;52.264;6.154;2023-07-16T05:09:27;59.25;;;49.22;;
47021;SDS011;32779;52.264;6.154;2023-07-16T05:14:19;61.40;;;55.05;;
47021;SDS011;32779;52.264;6.154;2023-07-16T05:19:10;81.80;;;69.85;;
47021;SDS011;32779;52.264;6.154;2023-07-16T05:24:01;70.80;;;63.33;;
47021;SDS011;32779;52.264;6.154;2023-07-16T05:28:52;85.22;;;64.57;;
47021;SDS011;32779;52.264;6.154;2023-07-16T05:31:18;67.40;;;53.03;;
47021;SDS011;32779;52.264;6.154;2023-07-16T05:36:09;92.93;;;73.05;;
47021;SDS011;32779;52.264;6.154;2023-07-16T05:41:01;69.00;;;62.03;;
47021;SDS011;32779;52.264;6.154;2023-07-16T05:43:27;53.28;;;47.60;;
47021;SDS011;32779;52.264;6.154;2023-07-16T05:48:19;66.40;;;59.90;;
47021;SDS011;32779;52.264;6.154;2023-07-16T05:53:10;86.88;;;79.32;;
47021;SDS011;32779;52.264;6.154;2023-07-16T05:58:04;99.25;;;90.45;;
47021;SDS011;32779;52.264;6.154;2023-07-16T06:02:55;103.90;;;94.05;;
47021;SDS011;32779;52.264;6.154;2023-07-16T06:07:46;118.70;;;108.28;;
47021;SDS011;32779;52.264;6.154;2023-07-16T06:12:37;113.30;;;103.28;;
47021;SDS011;32779;52.264;6.154;2023-07-16T06:17:29;83.22;;;75.28;;
47021;SDS011;32779;52.264;6.154;2023-07-16T06:19:54;79.25;;;71.68;;
47021;SDS011;32779;52.264;6.154;2023-07-16T06:24:45;105.63;;;96.45;;
47021;SDS011;32779;52.264;6.154;2023-07-16T06:29:36;110.03;;;100.65;;
47021;SDS011;32779;52.264;6.154;2023-07-16T06:34:28;107.47;;;98.05;;
47021;SDS011;32779;52.264;6.154;2023-07-16T06:36:54;78.57;;;71.47;;
47021;SDS011;32779;52.264;6.154;2023-07-16T06:39:19;97.07;;;87.72;;
47021;SDS011;32779;52.264;6.154;2023-07-16T06:41:45;89.07;;;80.80;;
47021;SDS011;32779;52.264;6.154;2023-07-16T06:46:36;104.82;;;92.32;;
47021;SDS011;32779;52.264;6.154;2023-07-16T06:51:27;86.50;;;78.53;;
47021;SDS011;32779;52.264;6.154;2023-07-16T06:53:55;92.28;;;84.45;;
47021;SDS011;32779;52.264;6.154;2023-07-16T06:56:20;106.55;;;96.50;;
47021;SDS011;32779;52.264;6.154;2023-07-16T06:58:46;94.20;;;86.05;;
47021;SDS011;32779;52.264;6.154;2023-07-16T07:01:12;93.13;;;84.63;;
47021;SDS011;32779;52.264;6.154;2023-07-16T07:03:37;85.70;;;77.85;;
47021;SDS011;32779;52.264;6.154;2023-07-16T07:06:03;96.38;;;87.80;;
47021;SDS011;32779;52.264;6.154;2023-07-16T07:08:29;67.93;;;61.20;;
47021;SDS011;32779;52.264;6.154;2023-07-16T07:10:55;76.60;;;69.57;;
47021;SDS011;32779;52.264;6.154;2023-07-16T07:13:21;65.07;;;59.00;;
47021;SDS011;32779;52.264;6.154;2023-07-16T07:15:47;76.55;;;68.70;;
47021;SDS011;32779;52.264;6.154;2023-07-16T07:18:13;75.07;;;67.80;;
47021;SDS011;32779;52.264;6.154;2023-07-16T07:20:39;70.32;;;63.45;;
47021;SDS011;32779;52.264;6.154;2023-07-16T07:23:05;71.88;;;65.18;;
47021;SDS011;32779;52.264;6.154;2023-07-16T07:25:31;58.33;;;53.15;;
47021;SDS011;32779;52.264;6.154;2023-07-16T07:27:57;78.85;;;71.30;;
47021;SDS011;32779;52.264;6.154;2023-07-16T07:30:23;68.50;;;61.88;;
47021;SDS011;32779;52.264;6.154;2023-07-16T07:32:48;97.00;;;88.00;;
47021;SDS011;32779;52.264;6.154;2023-07-16T07:35:14;50.38;;;45.53;;
47021;SDS011;32779;52.264;6.154;2023-07-16T07:37:40;67.18;;;56.33;;
47021;SDS011;32779;52.264;6.154;2023-07-16T07:40:05;80.72;;;73.10;;
47021;SDS011;32779;52.264;6.154;2023-07-16T07:42:32;72.30;;;64.90;;
47021;SDS011;32779;52.264;6.154;2023-07-16T07:44:58;60.80;;;55.10;;
47021;SDS011;32779;52.264;6.154;2023-07-16T07:47:24;58.58;;;53.10;;
47021;SDS011;32779;52.264;6.154;2023-07-16T07:49:50;76.13;;;68.95;;
47021;SDS011;32779;52.264;6.154;2023-07-16T07:52:17;48.75;;;43.30;;
47021;SDS011;32779;52.264;6.154;2023-07-16T07:54:43;83.78;;;76.13;;
47021;SDS011;32779;52.264;6.154;2023-07-16T07:57:09;69.35;;;63.08;;
47021;SDS011;32779;52.264;6.154;2023-07-16T07:59:34;70.38;;;64.18;;
47021;SDS011;32779;52.264;6.154;2023-07-16T08:02:00;65.05;;;59.40;;
47021;SDS011;32779;52.264;6.154;2023-07-16T08:04:28;68.38;;;61.83;;
47021;SDS011;32779;52.264;6.154;2023-07-16T08:06:56;77.07;;;70.43;;
47021;SDS011;32779;52.264;6.154;2023-07-16T08:09:22;78.65;;;71.40;;
47021;SDS011;32779;52.264;6.154;2023-07-16T08:11:47;84.43;;;77.50;;
47021;SDS011;32779;52.264;6.154;2023-07-16T08:14:13;94.93;;;87.15;;
47021;SDS011;32779;52.264;6.154;2023-07-16T08:16:39;91.28;;;83.57;;
47021;SDS011;32779;52.264;6.154;2023-07-16T08:19:04;152.20;;;138.48;;
47021;SDS011;32779;52.264;6.154;2023-07-16T08:21:30;109.55;;;99.60;;
47021;SDS011;32779;52.264;6.154;2023-07-16T08:23:57;111.38;;;101.72;;
47021;SDS011;32779;52.264;6.154;2023-07-16T08:26:23;126.95;;;116.25;;
47021;SDS011;32779;52.264;6.154;2023-07-16T08:28:48;94.75;;;86.50;;
47021;SDS011;32779;52.264;6.154;2023-07-16T08:31:14;115.05;;;104.68;;
47021;SDS011;32779;52.264;6.154;2023-07-16T08:33:40;107.20;;;96.55;;
47021;SDS011;32779;52.264;6.154;2023-07-16T08:36:06;127.70;;;117.03;;
47021;SDS011;32779;52.264;6.154;2023-07-16T08:38:32;99.72;;;91.15;;
47021;SDS011;32779;52.264;6.154;2023-07-16T08:40:59;109.28;;;100.55;;
47021;SDS011;32779;52.264;6.154;2023-07-16T08:43:25;98.55;;;90.43;;
47021;SDS011;32779;52.264;6.154;2023-07-16T08:45:52;99.25;;;90.25;;
47021;SDS011;32779;52.264;6.154;2023-07-16T08:48:18;104.97;;;95.28;;
47021;SDS011;32779;52.264;6.154;2023-07-16T08:50:45;133.30;;;121.78;;
47021;SDS011;32779;52.264;6.154;2023-07-16T08:53:12;122.47;;;112.78;;
47021;SDS011;32779;52.264;6.154;2023-07-16T08:55:43;95.05;;;85.22;;
47021;SDS011;32779;52.264;6.154;2023-07-16T08:58:09;128.50;;;116.38;;
47021;SDS011;32779;52.264;6.154;2023-07-16T09:00:45;137.13;;;123.53;;
47021;SDS011;32779;52.264;6.154;2023-07-16T09:03:11;103.32;;;94.93;;
47021;SDS011;32779;52.264;6.154;2023-07-16T09:05:46;100.55;;;91.10;;
47021;SDS011;32779;52.264;6.154;2023-07-16T09:08:12;198.82;;;175.82;;
47021;SDS011;32779;52.264;6.154;2023-07-16T09:10:41;90.07;;;81.68;;
47021;SDS011;32779;52.264;6.154;2023-07-16T09:13:07;96.53;;;87.90;;
47021;SDS011;32779;52.264;6.154;2023-07-16T09:15:32;100.47;;;91.53;;
47021;SDS011;32779;52.264;6.154;2023-07-16T09:18:02;102.85;;;94.35;;
47021;SDS011;32779;52.264;6.154;2023-07-16T09:20:29;86.25;;;78.28;;
47021;SDS011;32779;52.264;6.154;2023-07-16T09:22:57;105.43;;;95.20;;
47021;SDS011;32779;52.264;6.154;2023-07-16T09:25:29;108.57;;;98.72;;
47021;SDS011;32779;52.264;6.154;2023-07-16T09:27:57;110.07;;;100.75;;
47021;SDS011;32779;52.264;6.154;2023-07-16T09:30:30;102.40;;;93.35;;
47021;SDS011;32779;52.264;6.154;2023-07-16T09:33:13;105.85;;;96.78;;
47021;SDS011;32779;52.264;6.154;2023-07-16T09:35:40;116.38;;;106.28;;
47021;SDS011;32779;52.264;6.154;2023-07-16T09:38:07;158.05;;;141.88;;
47021;SDS011;32779;52.264;6.154;2023-07-16T09:40:35;119.22;;;108.57;;
47021;SDS011;32779;52.264;6.154;2023-07-16T09:43:04;115.88;;;104.63;;
47021;SDS011;32779;52.264;6.154;2023-07-16T09:45:31;98.47;;;90.15;;
47021;SDS011;32779;52.264;6.154;2023-07-16T09:47:57;87.20;;;78.50;;
47021;SDS011;32779;52.264;6.154;2023-07-16T09:50:23;92.60;;;84.22;;
47021;SDS011;32779;52.264;6.154;2023-07-16T09:52:51;125.70;;;115.05;;
47021;SDS011;32779;52.264;6.154;2023-07-16T09:55:17;116.97;;;106.25;;
47021;SDS011;32779;52.264;6.154;2023-07-16T09:57:46;108.28;;;99.45;;
47021;SDS011;32779;52.264;6.154;2023-07-16T10:00:13;95.13;;;85.93;;
47021;SDS011;32779;52.264;6.154;2023-07-16T10:02:40;89.35;;;81.28;;
47021;SDS011;32779;52.264;6.154;2023-07-16T10:07:43;102.60;;;94.28;;
47021;SDS011;32779;52.264;6.154;2023-07-16T10:10:16;95.32;;;86.20;;
47021;SDS011;32779;52.264;6.154;2023-07-16T10:12:42;78.47;;;71.63;;
47021;SDS011;32779;52.264;6.154;2023-07-16T10:15:24;89.15;;;81.57;;
47021;SDS011;32779;52.264;6.154;2023-07-16T10:17:51;75.20;;;69.40;;
47021;SDS011;32779;52.264;6.154;2023-07-16T10:20:17;109.43;;;99.93;;
47021;SDS011;32779;52.264;6.154;2023-07-16T10:22:57;104.63;;;96.18;;
47021;SDS011;32779;52.264;6.154;2023-07-16T10:25:24;95.63;;;87.88;;
47021;SDS011;32779;52.264;6.154;2023-07-16T10:27:52;89.93;;;81.70;;
47021;SDS011;32779;52.264;6.154;2023-07-16T10:30:19;91.35;;;83.18;;
47021;SDS011;32779;52.264;6.154;2023-07-16T10:32:45;66.80;;;60.92;;
47021;SDS011;32779;52.264;6.154;2023-07-16T10:35:11;75.93;;;69.95;;
47021;SDS011;32779;52.264;6.154;2023-07-16T10:37:37;73.32;;;66.93;;
47021;SDS011;32779;52.264;6.154;2023-07-16T10:40:04;82.93;;;75.05;;
47021;SDS011;32779;52.264;6.154;2023-07-16T10:42:32;81.43;;;74.47;;
47021;SDS011;32779;52.264;6.154;2023-07-16T10:45:01;97.53;;;88.85;;
47021;SDS011;32779;52.264;6.154;2023-07-16T10:47:33;93.88;;;86.00;;
47021;SDS011;32779;52.264;6.154;2023-07-16T10:50:00;95.82;;;87.65;;
47021;SDS011;32779;52.264;6.154;2023-07-16T10:52:30;108.93;;;99.95;;
47021;SDS011;32779;52.264;6.154;2023-07-16T10:54:56;111.10;;;101.80;;
47021;SDS011;32779;52.264;6.154;2023-07-16T10:57:23;117.85;;;107.90;;
47021;SDS011;32779;52.264;6.154;2023-07-16T10:59:50;114.13;;;104.97;;
47021;SDS011;32779;52.264;6.154;2023-07-16T11:02:16;122.65;;;113.38;;
47021;SDS011;32779;52.264;6.154;2023-07-16T11:04:43;121.65;;;112.05;;
47021;SDS011;32779;52.264;6.154;2023-07-16T11:07:12;151.18;;;136.05;;
47021;SDS011;32779;52.264;6.154;2023-07-16T11:09:42;118.35;;;109.45;;
47021;SDS011;32779;52.264;6.154;2023-07-16T11:12:16;119.13;;;109.70;;
47021;SDS011;32779;52.264;6.154;2023-07-16T11:14:49;108.50;;;100.72;;
47021;SDS011;32779;52.264;6.154;2023-07-16T11:17:19;118.18;;;108.28;;
47021;SDS011;32779;52.264;6.154;2023-07-16T11:19:48;117.45;;;107.72;;
47021;SDS011;32779;52.264;6.154;2023-07-16T11:22:15;126.93;;;116.30;;
47021;SDS011;32779;52.264;6.154;2023-07-16T11:24:42;98.88;;;90.95;;
47021;SDS011;32779;52.264;6.154;2023-07-16T11:27:13;106.20;;;97.95;;
47021;SDS011;32779;52.264;6.154;2023-07-16T11:29:46;140.00;;;127.82;;
47021;SDS011;32779;52.264;6.154;2023-07-16T11:35:16;139.53;;;128.43;;
47021;SDS011;32779;52.264;6.154;2023-07-16T11:37:43;148.95;;;137.07;;
47021;SDS011;32779;52.264;6.154;2023-07-16T11:40:10;158.75;;;146.13;;
47021;SDS011;32779;52.264;6.154;2023-07-16T11:42:39;148.30;;;136.38;;
47021;SDS011;32779;52.264;6.154;2023-07-16T11:45:16;140.95;;;130.25;;
47021;SDS011;32779;52.264;6.154;2023-07-16T11:47:51;141.10;;;130.13;;
47021;SDS011;32779;52.264;6.154;2023-07-16T11:50:17;136.15;;;124.07;;
47021;SDS011;32779;52.264;6.154;2023-07-16T11:52:51;136.43;;;124.38;;
47021;SDS011;32779;52.264;6.154;2023-07-16T11:55:21;117.00;;;107.22;;
47021;SDS011;32779;52.264;6.154;2023-07-16T11:57:47;111.53;;;101.68;;
47021;SDS011;32779;52.264;6.154;2023-07-16T12:00:12;94.82;;;86.90;;
47021;SDS011;32779;52.264;6.154;2023-07-16T12:02:38;157.93;;;144.82;;
47021;SDS011;32779;52.264;6.154;2023-07-16T12:05:04;221.18;;;203.02;;
47021;SDS011;32779;52.264;6.154;2023-07-16T12:07:36;189.13;;;175.30;;
47021;SDS011;32779;52.264;6.154;2023-07-16T12:10:03;206.05;;;188.90;;
47021;SDS011;32779;52.264;6.154;2023-07-16T12:12:30;148.73;;;136.88;;
47021;SDS011;32779;52.264;6.154;2023-07-16T12:14:56;205.52;;;189.50;;
47021;SDS011;32779;52.264;6.154;2023-07-16T12:17:22;153.60;;;142.38;;
47021;SDS011;32779;52.264;6.154;2023-07-16T12:19:48;155.93;;;143.20;;
47021;SDS011;32779;52.264;6.154;2023-07-16T12:22:15;130.10;;;119.32;;
47021;SDS011;32779;52.264;6.154;2023-07-16T12:24:42;150.73;;;136.35;;
47021;SDS011;32779;52.264;6.154;2023-07-16T12:27:08;158.95;;;146.80;;
47021;SDS011;32779;52.264;6.154;2023-07-16T12:29:34;168.45;;;155.10;;
47021;SDS011;32779;52.264;6.154;2023-07-16T12:31:59;124.38;;;113.78;;
47021;SDS011;32779;52.264;6.154;2023-07-16T12:34:25;131.43;;;121.43;;
47021;SDS011;32779;52.264;6.154;2023-07-16T12:36:51;152.43;;;140.10;;
47021;SDS011;32779;52.264;6.154;2023-07-16T12:39:16;158.45;;;146.07;;
47021;SDS011;32779;52.264;6.154;2023-07-16T12:41:43;138.05;;;127.13;;
47021;SDS011;32779;52.264;6.154;2023-07-16T12:44:08;123.75;;;114.10;;
47021;SDS011;32779;52.264;6.154;2023-07-16T12:46:34;126.55;;;115.35;;
47021;SDS011;32779;52.264;6.154;2023-07-16T12:48:59;115.82;;;106.43;;
47021;SDS011;32779;52.264;6.154;2023-07-16T12:51:25;126.38;;;115.97;;
47021;SDS011;32779;52.264;6.154;2023-07-16T12:53:51;109.82;;;100.93;;
47021;SDS011;32779;52.264;6.154;2023-07-16T12:56:16;128.55;;;118.70;;
47021;SDS011;32779;52.264;6.154;2023-07-16T12:58:42;106.55;;;97.35;;
47021;SDS011;32779;52.264;6.154;2023-07-16T13:01:07;95.93;;;87.38;;
47021;SDS011;32779;52.264;6.154;2023-07-16T13:03:33;91.47;;;83.57;;
47021;SDS011;32779;52.264;6.154;2023-07-16T13:05:58;103.18;;;93.45;;
47021;SDS011;32779;52.264;6.154;2023-07-16T13:08:24;66.43;;;59.50;;
47021;SDS011;32779;52.264;6.154;2023-07-16T13:10:50;77.50;;;68.78;;
47021;SDS011;32779;52.264;6.154;2023-07-16T13:13:15;75.00;;;68.07;;
47021;SDS011;32779;52.264;6.154;2023-07-16T13:15:41;105.93;;;94.30;;
47021;SDS011;32779;52.264;6.154;2023-07-16T13:18:09;119.15;;;103.03;;
47021;SDS011;32779;52.264;6.154;2023-07-16T13:20:36;89.93;;;81.35;;
47021;SDS011;32779;52.264;6.154;2023-07-16T13:23:01;93.15;;;84.53;;
47021;SDS011;32779;52.264;6.154;2023-07-16T13:25:27;85.85;;;77.88;;
47021;SDS011;32779;52.264;6.154;2023-07-16T13:27:54;77.75;;;70.90;;
47021;SDS011;32779;52.264;6.154;2023-07-16T13:30:23;75.90;;;68.72;;
47021;SDS011;32779;52.264;6.154;2023-07-16T13:32:48;86.40;;;79.13;;
47021;SDS011;32779;52.264;6.154;2023-07-16T13:35:14;84.00;;;77.50;;
47021;SDS011;32779;52.264;6.154;2023-07-16T13:37:41;77.28;;;69.45;;
47021;SDS011;32779;52.264;6.154;2023-07-16T13:40:07;66.32;;;59.78;;
47021;SDS011;32779;52.264;6.154;2023-07-16T13:42:33;73.28;;;66.75;;
47021;SDS011;32779;52.264;6.154;2023-07-16T13:44:59;112.13;;;94.18;;
47021;SDS011;32779;52.264;6.154;2023-07-16T13:47:25;88.15;;;80.47;;
47021;SDS011;32779;52.264;6.154;2023-07-16T13:49:50;84.38;;;77.43;;
47021;SDS011;32779;52.264;6.154;2023-07-16T13:52:16;83.38;;;76.00;;
47021;SDS011;32779;52.264;6.154;2023-07-16T13:54:42;99.55;;;89.68;;
47021;SDS011;32779;52.264;6.154;2023-07-16T13:57:08;88.00;;;80.00;;
47021;SDS011;32779;52.264;6.154;2023-07-16T13:59:34;103.22;;;94.88;;
47021;SDS011;32779;52.264;6.154;2023-07-16T14:02:00;91.15;;;81.18;;
47021;SDS011;32779;52.264;6.154;2023-07-16T14:04:28;112.03;;;102.05;;
47021;SDS011;32779;52.264;6.154;2023-07-16T14:06:53;63.92;;;57.67;;
47021;SDS011;32779;52.264;6.154;2023-07-16T14:09:20;73.80;;;65.85;;
47021;SDS011;32779;52.264;6.154;2023-07-16T14:11:46;69.95;;;63.20;;
47021;SDS011;32779;52.264;6.154;2023-07-16T14:14:20;59.58;;;54.00;;
47021;SDS011;32779;52.264;6.154;2023-07-16T14:16:46;84.43;;;77.82;;
47021;SDS011;32779;52.264;6.154;2023-07-16T14:19:12;128.65;;;103.40;;
47021;SDS011;32779;52.264;6.154;2023-07-16T14:21:39;92.72;;;82.82;;
47021;SDS011;32779;52.264;6.154;2023-07-16T14:24:05;76.40;;;69.57;;
47021;SDS011;32779;52.264;6.154;2023-07-16T14:26:31;81.97;;;74.75;;
47021;SDS011;32779;52.264;6.154;2023-07-16T14:28:56;86.05;;;77.95;;
47021;SDS011;32779;52.264;6.154;2023-07-16T14:31:22;78.38;;;71.25;;
47021;SDS011;32779;52.264;6.154;2023-07-16T14:33:48;81.20;;;74.47;;
47021;SDS011;32779;52.264;6.154;2023-07-16T14:36:14;72.85;;;66.85;;
47021;SDS011;32779;52.264;6.154;2023-07-16T14:38:39;90.00;;;82.38;;
47021;SDS011;32779;52.264;6.154;2023-07-16T14:41:05;104.47;;;94.88;;
47021;SDS011;32779;52.264;6.154;2023-07-16T14:43:32;106.85;;;98.35;;
47021;SDS011;32779;52.264;6.154;2023-07-16T14:45:58;89.78;;;82.72;;
47021;SDS011;32779;52.264;6.154;2023-07-16T14:48:24;86.57;;;79.22;;
47021;SDS011;32779;52.264;6.154;2023-07-16T14:50:51;100.35;;;92.15;;
47021;SDS011;32779;52.264;6.154;2023-07-16T14:53:17;89.43;;;82.05;;
47021;SDS011;32779;52.264;6.154;2023-07-16T14:55:50;87.22;;;79.82;;
47021;SDS011;32779;52.264;6.154;2023-07-16T14:58:19;100.18;;;92.53;;
47021;SDS011;32779;52.264;6.154;2023-07-16T15:00:49;119.85;;;110.20;;
47021;SDS011;32779;52.264;6.154;2023-07-16T15:03:14;89.68;;;82.43;;
47021;SDS011;32779;52.264;6.154;2023-07-16T15:05:40;92.40;;;84.93;;
47021;SDS011;32779;52.264;6.154;2023-07-16T15:08:06;100.28;;;91.72;;
47021;SDS011;32779;52.264;6.154;2023-07-16T15:10:32;105.32;;;97.22;;
47021;SDS011;32779;52.264;6.154;2023-07-16T15:12:57;105.20;;;96.68;;
47021;SDS011;32779;52.264;6.154;2023-07-16T15:15:23;87.07;;;79.65;;
47021;SDS011;32779;52.264;6.154;2023-07-16T15:17:49;121.53;;;112.22;;
47021;SDS011;32779;52.264;6.154;2023-07-16T15:20:15;110.28;;;99.28;;
47021;SDS011;32779;52.264;6.154;2023-07-16T15:22:41;112.75;;;103.93;;
47021;SDS011;32779;52.264;6.154;2023-07-16T15:25:07;151.07;;;138.05;;
47021;SDS011;32779;52.264;6.154;2023-07-16T15:27:33;147.48;;;136.27;;
47021;SDS011;32779;52.264;6.154;2023-07-16T15:29:59;117.15;;;107.53;;
47021;SDS011;32779;52.264;6.154;2023-07-16T15:32:25;127.63;;;117.10;;
47021;SDS011;32779;52.264;6.154;2023-07-16T15:34:50;138.02;;;126.30;;
47021;SDS011;32779;52.264;6.154;2023-07-16T15:37:16;132.48;;;121.90;;
47021;SDS011;32779;52.264;6.154;2023-07-16T15:39:42;124.18;;;113.40;;
47021;SDS011;32779;52.264;6.154;2023-07-16T15:42:08;121.15;;;111.70;;
47021;SDS011;32779;52.264;6.154;2023-07-16T15:44:34;99.38;;;90.57;;
47021;SDS011;32779;52.264;6.154;2023-07-16T15:47:00;98.00;;;89.97;;
47021;SDS011;32779;52.264;6.154;2023-07-16T15:49:27;112.93;;;102.88;;
47021;SDS011;32779;52.264;6.154;2023-07-16T15:51:53;89.65;;;82.47;;
47021;SDS011;32779;52.264;6.154;2023-07-16T15:54:18;85.30;;;77.90;;
47021;SDS011;32779;52.264;6.154;2023-07-16T15:56:44;80.40;;;73.45;;
47021;SDS011;32779;52.264;6.154;2023-07-16T15:59:11;95.43;;;87.63;;
47021;SDS011;32779;52.264;6.154;2023-07-16T16:01:37;90.97;;;83.80;;
47021;SDS011;32779;52.264;6.154;2023-07-16T16:04:03;87.28;;;79.75;;
47021;SDS011;32779;52.264;6.154;2023-07-16T16:06:29;99.13;;;91.22;;
47021;SDS011;32779;52.264;6.154;2023-07-16T16:08:55;105.15;;;96.05;;
47021;SDS011;32779;52.264;6.154;2023-07-16T16:11:22;93.95;;;86.28;;
47021;SDS011;32779;52.264;6.154;2023-07-16T16:13:48;78.75;;;71.65;;
47021;SDS011;32779;52.264;6.154;2023-07-16T16:16:14;68.65;;;57.58;;
47021;SDS011;32779;52.264;6.154;2023-07-16T16:18:41;57.08;;;47.03;;
47021;SDS011;32779;52.264;6.154;2023-07-16T16:21:07;53.08;;;47.92;;
47021;SDS011;32779;52.264;6.154;2023-07-16T16:23:32;45.65;;;40.58;;
47021;SDS011;32779;52.264;6.154;2023-07-16T16:25:58;47.90;;;42.72;;
47021;SDS011;32779;52.264;6.154;2023-07-16T16:28:24;58.80;;;50.53;;
47021;SDS011;32779;52.264;6.154;2023-07-16T16:30:49;47.30;;;38.20;;
47021;SDS011;32779;52.264;6.154;2023-07-16T16:33:15;53.97;;;40.13;;
47021;SDS011;32779;52.264;6.154;2023-07-16T16:35:41;51.45;;;39.75;;
47021;SDS011;32779;52.264;6.154;2023-07-16T16:38:07;52.88;;;43.35;;
47021;SDS011;32779;52.264;6.154;2023-07-16T16:40:38;55.58;;;48.55;;
47021;SDS011;32779;52.264;6.154;2023-07-16T16:43:03;56.97;;;45.03;;
47021;SDS011;32779;52.264;6.154;2023-07-16T16:45:29;69.68;;;63.05;;
47021;SDS011;32779;52.264;6.154;2023-07-16T16:47:55;64.32;;;58.15;;
47021;SDS011;32779;52.264;6.154;2023-07-16T16:50:20;69.85;;;62.40;;
47021;SDS011;32779;52.264;6.154;2023-07-16T16:52:46;71.47;;;64.70;;
47021;SDS011;32779;52.264;6.154;2023-07-16T16:55:12;70.18;;;63.53;;
47021;SDS011;32779;52.264;6.154;2023-07-16T16:57:38;82.53;;;74.97;;
47021;SDS011;32779;52.264;6.154;2023-07-16T17:00:04;80.63;;;72.60;;
47021;SDS011;32779;52.264;6.154;2023-07-16T17:02:35;87.65;;;79.40;;
47021;SDS011;32779;52.264;6.154;2023-07-16T17:05:01;79.55;;;72.25;;